createdAt,value
2019-03-09T00:01:19.060Z,14.06
2019-03-09T00:03:48.733Z,13.84
2019-03-09T00:06:17.508Z,13.47
2019-03-09T00:08:46.618Z,13.97
2019-03-09T00:11:15.225Z,14.08
2019-03-09T00:13:43.901Z,12.72
2019-03-09T00:16:12.507Z,14.21
2019-03-09T00:18:41.108Z,12.30
2019-03-09T00:21:09.713Z,13.50
2019-03-09T00:23:56.151Z,12.99
2019-03-09T00:26:48.328Z,12.55
2019-03-09T00:29:39.052Z,13.49
2019-03-09T00:32:10.340Z,12.96
2019-03-09T00:34:39.349Z,14.23
2019-03-09T00:37:08.270Z,13.78
2019-03-09T00:39:36.875Z,15.04
2019-03-09T00:42:05.653Z,10.81
2019-03-09T00:44:34.320Z,9.92
2019-03-09T00:47:03.269Z,9.82
2019-03-09T00:49:32.114Z,9.92
2019-03-09T00:52:01.048Z,9.66
2019-03-09T00:54:29.656Z,10.12
2019-03-09T00:56:58.330Z,10.69
2019-03-09T00:59:27.025Z,9.69
2019-03-09T01:01:55.681Z,9.97
2019-03-09T01:04:24.511Z,9.76
2019-03-09T01:06:53.139Z,10.40
2019-03-09T01:09:22.086Z,9.77
2019-03-09T01:11:50.686Z,10.34
2019-03-09T01:14:19.302Z,10.35
2019-03-09T01:16:48.145Z,9.92
2019-03-09T01:19:16.786Z,10.37
2019-03-09T01:21:45.670Z,10.17
2019-03-09T01:24:14.923Z,11.14
2019-03-09T01:26:43.644Z,10.67
2019-03-09T01:29:12.721Z,10.03
2019-03-09T01:31:41.361Z,10.76
2019-03-09T01:34:09.970Z,10.32
2019-03-09T01:36:38.730Z,10.56
2019-03-09T01:39:08.148Z,10.75
2019-03-09T01:41:36.786Z,10.23
2019-03-09T01:44:05.495Z,10.08
2019-03-09T01:46:34.127Z,10.26
2019-03-09T01:49:03.326Z,10.30
2019-03-09T01:51:32.059Z,9.97
2019-03-09T01:54:01.046Z,9.52
2019-03-09T01:56:29.645Z,10.84
2019-03-09T01:58:58.331Z,9.63
2019-03-09T02:01:26.955Z,10.83
2019-03-09T02:03:55.558Z,10.25
2019-03-09T02:06:24.574Z,10.46
2019-03-09T02:08:53.148Z,10.08
2019-03-09T02:11:21.962Z,10.37
2019-03-09T02:13:50.946Z,10.13
2019-03-09T02:16:19.613Z,10.34
2019-03-09T02:18:48.210Z,10.48
2019-03-09T02:21:17.179Z,9.84
2019-03-09T02:23:46.149Z,10.51
2019-03-09T02:26:15.049Z,9.97
2019-03-09T02:28:43.871Z,9.86
2019-03-09T02:31:12.756Z,9.58
2019-03-09T02:33:41.475Z,9.91
2019-03-09T02:36:10.317Z,8.89
2019-03-09T02:38:49.785Z,9.46
2019-03-09T02:41:19.087Z,9.44
2019-03-09T02:43:47.684Z,10.64
2019-03-09T02:46:16.307Z,10.32
2019-03-09T02:48:45.149Z,9.97
2019-03-09T02:51:13.781Z,10.00
2019-03-09T02:53:42.664Z,9.48
2019-03-09T02:56:11.289Z,10.11
2019-03-09T02:58:40.168Z,9.57
2019-03-09T03:01:26.347Z,9.68
2019-03-09T03:03:55.205Z,8.96
2019-03-09T03:06:24.085Z,9.34
2019-03-09T03:08:52.824Z,9.12
2019-03-09T03:11:21.660Z,9.68
2019-03-09T03:13:50.273Z,9.61
2019-03-09T03:16:19.080Z,8.57
2019-03-09T03:18:47.695Z,9.05
2019-03-09T03:21:16.634Z,9.25
2019-03-09T03:23:45.224Z,8.59
2019-03-09T03:26:14.118Z,9.10
2019-03-09T03:28:42.712Z,8.78
2019-03-09T03:31:11.306Z,9.50
2019-03-09T03:33:40.526Z,9.45
2019-03-09T03:36:09.133Z,9.12
2019-03-09T03:38:37.739Z,9.88
2019-03-09T03:41:06.329Z,9.55
2019-03-09T03:43:35.295Z,8.25
2019-03-09T03:46:03.877Z,9.90
2019-03-09T03:48:32.471Z,9.10
2019-03-09T03:51:01.631Z,8.84
2019-03-09T03:53:30.229Z,8.63
2019-03-09T03:55:59.044Z,9.27
2019-03-09T03:58:27.622Z,8.88
2019-03-09T04:00:56.306Z,8.91
2019-03-09T04:03:24.916Z,8.73
2019-03-09T04:05:53.680Z,9.26
2019-03-09T04:08:22.343Z,8.82
2019-03-09T04:10:51.027Z,8.54
2019-03-09T04:13:19.618Z,9.09
2019-03-09T04:15:48.463Z,8.84
2019-03-09T04:18:17.077Z,8.94
2019-03-09T04:20:45.710Z,8.89
2019-03-09T04:23:14.310Z,8.89
2019-03-09T04:25:43.113Z,9.06
2019-03-09T04:28:11.854Z,10.16
2019-03-09T04:30:40.462Z,8.96
2019-03-09T04:33:09.225Z,9.45
2019-03-09T04:35:38.045Z,8.89
2019-03-09T04:38:07.083Z,9.77
2019-03-09T04:40:35.698Z,10.12
2019-03-09T04:43:04.391Z,9.32
2019-03-09T04:45:33.322Z,8.92
2019-03-09T04:48:01.943Z,10.08
2019-03-09T04:50:30.540Z,10.29
2019-03-09T04:52:59.404Z,9.80
2019-03-09T04:55:28.003Z,9.52
2019-03-09T04:57:56.692Z,9.02
2019-03-09T05:00:25.298Z,10.00
2019-03-09T05:02:53.926Z,9.92
2019-03-09T05:05:22.527Z,9.77
2019-03-09T05:08:04.068Z,9.67
2019-03-09T05:10:42.363Z,9.88
2019-03-09T05:13:14.574Z,10.34
2019-03-09T05:15:43.406Z,9.69
2019-03-09T05:18:12.019Z,9.48
2019-03-09T05:20:40.591Z,9.42
2019-03-09T05:23:09.248Z,9.56
2019-03-09T05:25:37.910Z,10.45
2019-03-09T05:28:06.530Z,10.02
2019-03-09T05:30:42.547Z,9.52
2019-03-09T05:33:11.296Z,9.54
2019-03-09T05:35:39.987Z,10.67
2019-03-09T05:38:08.621Z,10.22
2019-03-09T05:40:37.225Z,9.71
2019-03-09T05:43:06.095Z,10.19
2019-03-09T05:45:34.721Z,10.68
2019-03-09T05:48:03.298Z,9.93
2019-03-09T05:50:32.298Z,10.55
2019-03-09T05:53:09.953Z,10.97
2019-03-09T05:55:38.550Z,10.49
2019-03-09T05:58:07.141Z,11.67
2019-03-09T06:00:37.073Z,11.61
2019-03-09T06:03:05.673Z,10.66
2019-03-09T06:05:42.022Z,10.97
2019-03-09T06:08:10.657Z,11.42
2019-03-09T06:10:39.268Z,11.27
2019-03-09T06:13:07.838Z,10.73
2019-03-09T06:15:36.449Z,11.77
2019-03-09T06:18:06.435Z,11.70
2019-03-09T06:20:35.305Z,11.96
2019-03-09T06:23:04.282Z,11.15
2019-03-09T06:25:32.902Z,10.50
2019-03-09T06:28:01.540Z,12.20
2019-03-09T06:30:30.220Z,9.83
2019-03-09T06:33:19.113Z,10.81
2019-03-09T06:35:49.887Z,12.04
2019-03-09T06:38:53.596Z,12.49
2019-03-09T06:41:32.498Z,12.21
2019-03-09T06:44:01.162Z,11.80
2019-03-09T06:46:29.824Z,11.92
2019-03-09T06:48:58.472Z,11.60
2019-03-09T06:51:27.288Z,12.60
2019-03-09T06:53:56.117Z,12.40
2019-03-09T06:56:24.800Z,12.38
2019-03-09T06:58:53.647Z,12.62
2019-03-09T07:01:22.601Z,12.20
2019-03-09T07:03:51.268Z,12.03
2019-03-09T07:06:19.871Z,11.98
2019-03-09T07:08:48.561Z,12.37
2019-03-09T07:11:17.265Z,13.84
2019-03-09T07:13:52.735Z,14.92
2019-03-09T07:16:16.209Z,14.93
2019-03-09T07:18:45.231Z,14.93
2019-03-09T07:21:13.872Z,15.74
2019-03-09T07:23:42.935Z,14.15
2019-03-09T07:26:11.661Z,14.17
2019-03-09T07:28:40.258Z,14.17
2019-03-09T07:31:08.948Z,12.56
2019-03-09T07:33:37.593Z,12.93
2019-03-09T07:36:06.341Z,13.29
2019-03-09T07:38:35.308Z,12.51
2019-03-09T07:41:04.284Z,12.51
2019-03-09T07:43:32.976Z,12.66
2019-03-09T07:46:01.566Z,12.62
2019-03-09T07:48:30.239Z,12.95
2019-03-09T07:50:58.849Z,12.44
2019-03-09T07:53:27.550Z,12.44
2019-03-09T07:55:56.140Z,12.70
2019-03-09T07:58:24.789Z,12.60
2019-03-09T08:00:53.381Z,11.61
2019-03-09T08:03:22.308Z,12.14
2019-03-09T08:05:50.938Z,12.06
2019-03-09T08:08:19.542Z,12.06
2019-03-09T08:10:48.399Z,12.90
2019-03-09T08:13:17.513Z,12.00
2019-03-09T08:15:46.536Z,11.73
2019-03-09T08:18:15.133Z,12.56
2019-03-09T08:20:43.880Z,12.09
2019-03-09T08:23:12.785Z,12.37
2019-03-09T08:25:41.571Z,12.37
2019-03-09T08:28:10.200Z,11.86
2019-03-09T08:30:38.791Z,12.25
2019-03-09T08:33:07.413Z,12.40
2019-03-09T08:35:36.014Z,11.30
2019-03-09T08:38:04.736Z,11.61
2019-03-09T08:40:33.374Z,11.78
2019-03-09T08:43:01.966Z,11.94
2019-03-09T08:45:30.668Z,12.37
2019-03-09T08:47:59.317Z,12.37
2019-03-09T08:50:28.334Z,12.14
2019-03-09T08:52:56.918Z,12.14
2019-03-09T08:55:26.139Z,11.63
2019-03-09T08:57:54.757Z,11.24
2019-03-09T09:00:25.528Z,11.80
2019-03-09T09:02:54.147Z,11.58
2019-03-09T09:05:22.808Z,13.11
2019-03-09T09:07:51.485Z,12.83
2019-03-09T09:10:20.394Z,11.98
2019-03-09T09:12:48.986Z,11.98
2019-03-09T09:15:17.776Z,13.00
2019-03-09T09:17:46.499Z,12.27
2019-03-09T09:20:16.802Z,11.50
2019-03-09T09:22:45.386Z,11.50
2019-03-09T09:25:14.253Z,12.40
2019-03-09T09:27:43.091Z,12.07
2019-03-09T09:30:14.865Z,12.07
2019-03-09T09:32:43.483Z,13.18
2019-03-09T09:35:12.190Z,12.87
2019-03-09T09:37:40.985Z,12.87
2019-03-09T09:40:11.090Z,12.78
2019-03-09T09:42:39.714Z,12.59
2019-03-09T09:45:09.792Z,12.59
2019-03-09T09:47:38.385Z,12.07
2019-03-09T09:50:07.778Z,13.09
2019-03-09T09:52:36.514Z,13.69
2019-03-09T09:55:06.131Z,13.81
2019-03-09T09:57:35.019Z,13.87
2019-03-09T10:00:03.957Z,13.39
2019-03-09T10:02:32.540Z,13.39
2019-03-09T10:05:01.160Z,12.78
2019-03-09T10:07:30.000Z,13.19
2019-03-09T10:09:58.616Z,13.19
2019-03-09T10:12:27.295Z,14.20
2019-03-09T10:14:55.905Z,12.45
2019-03-09T10:17:24.836Z,12.45
2019-03-09T10:19:53.480Z,13.55
2019-03-09T10:22:22.103Z,13.10
2019-03-09T10:24:51.159Z,12.92
2019-03-09T10:27:19.769Z,13.82
2019-03-09T10:29:48.375Z,12.77
2019-03-09T10:32:17.003Z,13.32
2019-03-09T10:34:45.620Z,13.26
2019-03-09T10:37:14.271Z,13.26
2019-03-09T10:39:43.119Z,13.88
2019-03-09T10:42:12.066Z,13.88
2019-03-09T10:44:41.024Z,13.73
2019-03-09T10:47:09.879Z,13.62
2019-03-09T10:49:38.728Z,12.63
2019-03-09T10:52:07.335Z,12.63
2019-03-09T10:54:36.389Z,13.53
2019-03-09T10:57:05.142Z,13.58
2019-03-09T10:59:33.699Z,13.58
2019-03-09T11:02:02.331Z,13.20
2019-03-09T11:04:30.932Z,14.22
2019-03-09T11:06:59.584Z,14.32
2019-03-09T11:09:28.172Z,13.98
2019-03-09T11:11:56.768Z,14.78
2019-03-09T11:14:25.373Z,14.64
2019-03-09T11:16:53.987Z,14.11
2019-03-09T11:19:22.586Z,14.65
2019-03-09T11:21:51.294Z,13.53
2019-03-09T11:24:19.869Z,15.56
2019-03-09T11:26:48.473Z,14.30
2019-03-09T11:29:17.141Z,14.08
2019-03-09T11:31:45.930Z,14.16
2019-03-09T11:34:14.797Z,14.07
2019-03-09T11:36:43.383Z,14.59
2019-03-09T11:39:12.099Z,14.70
2019-03-09T11:41:40.941Z,13.73
2019-03-09T11:44:09.570Z,13.62
2019-03-09T11:46:38.391Z,13.61
2019-03-09T11:49:07.273Z,14.04
2019-03-09T11:51:36.111Z,14.05
2019-03-09T11:54:04.857Z,14.31
2019-03-09T11:56:33.933Z,14.48
2019-03-09T11:59:02.627Z,13.05
2019-03-09T12:01:33.108Z,12.40
2019-03-09T12:04:02.011Z,12.97
2019-03-09T12:06:31.845Z,14.43
2019-03-09T12:09:00.716Z,14.73
2019-03-09T12:11:29.549Z,14.49
2019-03-09T12:13:58.204Z,13.52
2019-03-09T12:16:26.833Z,14.56
2019-03-09T12:18:55.513Z,14.65
2019-03-09T12:21:24.947Z,14.70
2019-03-09T12:23:53.916Z,14.52
2019-03-09T12:26:22.757Z,15.06
2019-03-09T12:28:51.597Z,16.13
2019-03-09T12:31:20.592Z,16.15
2019-03-09T12:33:49.253Z,15.52
2019-03-09T12:36:17.938Z,15.75
2019-03-09T12:38:46.857Z,17.43
2019-03-09T12:41:16.204Z,15.98
2019-03-09T12:43:45.035Z,15.24
2019-03-09T12:46:13.711Z,14.72
2019-03-09T12:48:42.489Z,17.55
2019-03-09T12:51:11.109Z,17.25
2019-03-09T12:53:39.693Z,17.53
2019-03-09T12:56:08.393Z,17.87
2019-03-09T12:58:37.020Z,17.66
2019-03-09T13:01:05.844Z,18.55
2019-03-09T13:03:35.236Z,16.72
2019-03-09T13:06:03.888Z,16.03
2019-03-09T13:08:32.820Z,15.71
2019-03-09T13:11:01.464Z,15.10
2019-03-09T13:13:30.052Z,14.52
2019-03-09T13:15:58.803Z,14.47
2019-03-09T13:18:27.418Z,16.12
2019-03-09T13:20:56.114Z,15.96
2019-03-09T13:23:24.733Z,15.06
2019-03-09T13:25:53.393Z,14.99
2019-03-09T13:28:21.972Z,14.75
2019-03-09T13:30:50.720Z,14.24
2019-03-09T13:33:19.624Z,14.84
2019-03-09T13:35:48.225Z,17.13
2019-03-09T13:38:16.828Z,16.22
2019-03-09T13:40:45.475Z,14.86
2019-03-09T13:43:14.137Z,15.87
2019-03-09T13:45:42.724Z,16.16
2019-03-09T13:48:11.323Z,14.87
2019-03-09T13:50:39.914Z,15.01
2019-03-09T13:53:08.509Z,15.42
2019-03-09T13:55:37.157Z,15.06
2019-03-09T13:58:05.996Z,14.95
2019-03-09T14:00:40.504Z,14.38
2019-03-09T14:03:05.349Z,14.72
2019-03-09T14:05:33.929Z,15.09
2019-03-09T14:08:02.566Z,14.44
2019-03-09T14:10:31.337Z,13.70
2019-03-09T14:12:59.941Z,14.66
2019-03-09T14:15:29.079Z,14.89
2019-03-09T14:17:57.708Z,14.89
2019-03-09T14:20:26.558Z,13.03
2019-03-09T14:22:55.220Z,13.44
2019-03-09T14:25:23.889Z,13.36
2019-03-09T14:27:52.574Z,13.24
2019-03-09T14:30:21.423Z,13.48
2019-03-09T14:32:50.014Z,13.45
2019-03-09T14:35:18.644Z,13.45
2019-03-09T14:37:47.231Z,13.99
2019-03-09T14:40:16.115Z,13.99
2019-03-09T14:42:45.167Z,13.91
2019-03-09T14:45:15.242Z,13.91
2019-03-09T14:47:43.996Z,15.02
2019-03-09T14:50:12.742Z,14.54
2019-03-09T14:52:41.649Z,15.11
2019-03-09T14:55:10.584Z,15.14
2019-03-09T14:57:39.479Z,14.60
2019-03-09T15:00:11.489Z,14.15
2019-03-09T15:02:40.144Z,14.15
2019-03-09T15:05:08.912Z,14.58
2019-03-09T15:07:37.592Z,13.81
2019-03-09T15:10:06.673Z,13.81
2019-03-09T15:12:35.380Z,12.88
2019-03-09T15:15:04.110Z,12.52
2019-03-09T15:17:32.924Z,12.52
2019-03-09T15:20:01.557Z,12.02
2019-03-09T15:22:30.299Z,11.73
2019-03-09T15:24:58.921Z,12.21
2019-03-09T15:27:27.607Z,12.69
2019-03-09T15:29:56.332Z,12.85
2019-03-09T15:32:25.025Z,14.07
2019-03-09T15:34:53.951Z,12.35
2019-03-09T15:37:22.613Z,11.82
2019-03-09T15:39:51.173Z,11.79
2019-03-09T15:42:19.823Z,11.83
2019-03-09T15:44:48.518Z,11.81
2019-03-09T15:47:17.198Z,12.63
2019-03-09T15:49:45.823Z,11.93
2019-03-09T15:52:14.799Z,12.76
2019-03-09T15:54:43.798Z,12.01
2019-03-09T15:57:12.587Z,11.93
2019-03-09T15:59:41.506Z,11.63
2019-03-09T16:02:11.216Z,11.64
2019-03-09T16:04:39.914Z,11.18
2019-03-09T16:07:08.774Z,11.03
2019-03-09T16:09:37.445Z,11.61
2019-03-09T16:12:06.419Z,13.40
2019-03-09T16:14:35.213Z,13.40
2019-03-09T16:17:07.417Z,11.51
2019-03-09T16:19:36.316Z,11.66
2019-03-09T16:22:05.332Z,12.19
2019-03-09T16:24:34.492Z,11.98
2019-03-09T16:27:03.491Z,11.87
2019-03-09T16:29:32.581Z,12.29
2019-03-09T16:32:01.534Z,12.18
2019-03-09T16:34:30.488Z,10.76
2019-03-09T16:36:59.355Z,12.08
2019-03-09T16:39:27.954Z,10.14
2019-03-09T16:41:56.888Z,10.64
2019-03-09T16:44:25.585Z,10.72
2019-03-09T16:46:54.420Z,10.62
2019-03-09T16:49:23.077Z,9.54
2019-03-09T16:51:51.978Z,10.39
2019-03-09T16:54:20.595Z,10.39
2019-03-09T16:56:49.479Z,10.47
2019-03-09T16:59:18.081Z,9.77
2019-03-09T17:01:46.705Z,10.30
2019-03-09T17:04:15.300Z,10.89
2019-03-09T17:06:44.138Z,10.56
2019-03-09T17:09:12.760Z,10.11
2019-03-09T17:11:41.362Z,8.94
2019-03-09T17:14:09.927Z,10.15
2019-03-09T17:16:38.647Z,9.73
2019-03-09T17:19:07.271Z,9.32
2019-03-09T17:21:36.275Z,8.45
2019-03-09T17:24:05.163Z,8.95
2019-03-09T17:26:34.022Z,8.73
2019-03-09T17:29:02.666Z,9.33
2019-03-09T17:31:31.287Z,9.29
2019-03-09T17:33:59.875Z,9.31
2019-03-09T17:36:28.972Z,9.95
2019-03-09T17:38:57.576Z,9.16
2019-03-09T17:41:26.175Z,9.15
2019-03-09T17:43:55.024Z,9.32
2019-03-09T17:46:23.646Z,9.50
2019-03-09T17:48:52.248Z,8.57
2019-03-09T17:51:20.880Z,10.21
2019-03-09T17:53:49.473Z,9.65
2019-03-09T17:56:18.359Z,10.80
2019-03-09T17:58:46.950Z,10.14
2019-03-09T18:01:15.528Z,10.16
2019-03-09T18:03:44.165Z,9.48
2019-03-09T18:06:13.098Z,10.05
2019-03-09T18:08:41.753Z,8.89
2019-03-09T18:11:10.365Z,9.23
2019-03-09T18:13:39.091Z,9.54
2019-03-09T18:16:08.035Z,9.33
2019-03-09T18:18:36.888Z,9.72
2019-03-09T18:21:05.846Z,11.04
2019-03-09T18:23:34.545Z,11.06
2019-03-09T18:26:03.199Z,9.55
2019-03-09T18:28:32.019Z,11.10
2019-03-09T18:31:00.881Z,10.32
2019-03-09T18:33:29.716Z,9.84
2019-03-09T18:35:58.425Z,10.48
2019-03-09T18:38:27.055Z,9.98
2019-03-09T18:40:55.873Z,11.18
2019-03-09T18:43:24.740Z,9.15
2019-03-09T18:45:53.459Z,10.46
2019-03-09T18:48:22.340Z,11.42
2019-03-09T18:50:50.920Z,10.55
2019-03-09T18:53:19.525Z,11.10
2019-03-09T18:55:58.599Z,10.49
2019-03-09T18:58:18.613Z,11.00
2019-03-09T19:00:47.325Z,9.76
2019-03-09T19:03:16.229Z,9.60
2019-03-09T19:05:45.098Z,11.04
2019-03-09T19:08:13.960Z,9.78
2019-03-09T19:10:42.851Z,10.77
2019-03-09T19:13:11.459Z,11.38
2019-03-09T19:15:40.138Z,10.39
2019-03-09T19:18:09.198Z,10.36
2019-03-09T19:20:37.888Z,11.10
2019-03-09T19:23:06.702Z,10.96
2019-03-09T19:25:35.862Z,11.60
2019-03-09T19:28:04.447Z,12.27
2019-03-09T19:30:33.302Z,12.41
2019-03-09T19:33:02.146Z,11.04
2019-03-09T19:35:30.768Z,11.46
2019-03-09T19:37:59.348Z,11.28
2019-03-09T19:40:28.017Z,10.90
2019-03-09T19:42:56.637Z,10.00
2019-03-09T19:45:25.512Z,11.51
2019-03-09T19:47:54.124Z,11.80
2019-03-09T19:50:22.707Z,12.07
2019-03-09T19:52:51.328Z,10.86
2019-03-09T19:55:20.168Z,11.47
2019-03-09T19:57:49.014Z,10.89
2019-03-09T20:00:17.701Z,11.33
2019-03-09T20:02:46.361Z,11.88
2019-03-09T20:05:15.033Z,10.00
2019-03-09T20:07:43.629Z,9.97
2019-03-09T20:10:12.737Z,11.35
2019-03-09T20:12:41.568Z,10.73
2019-03-09T20:15:11.605Z,10.52
2019-03-09T20:17:40.215Z,11.63
2019-03-09T20:20:09.591Z,12.54
2019-03-09T20:22:38.388Z,11.95
2019-03-09T20:25:07.705Z,12.12
2019-03-09T20:27:36.359Z,12.27
2019-03-09T20:30:06.033Z,12.10
2019-03-09T20:32:34.637Z,12.03
2019-03-09T20:35:03.268Z,12.57
2019-03-09T20:37:31.902Z,13.55
2019-03-09T20:40:00.499Z,12.72
2019-03-09T20:42:29.143Z,13.35
2019-03-09T20:44:57.741Z,12.28
2019-03-09T20:47:26.593Z,11.65
2019-03-09T20:49:55.254Z,12.21
2019-03-09T20:52:23.863Z,11.87
2019-03-09T20:54:52.552Z,12.56
2019-03-09T20:57:21.449Z,11.88
2019-03-09T20:59:52.618Z,12.44
2019-03-09T21:02:21.338Z,12.69
2019-03-09T21:04:49.963Z,12.08
2019-03-09T21:07:18.812Z,13.10
2019-03-09T21:09:48.139Z,12.57
2019-03-09T21:12:16.816Z,12.06
2019-03-09T21:14:45.475Z,12.93
2019-03-09T21:17:14.311Z,12.73
2019-03-09T21:19:43.013Z,12.71
2019-03-09T21:22:11.726Z,13.30
2019-03-09T21:24:40.643Z,12.24
2019-03-09T21:27:09.301Z,12.52
2019-03-09T21:29:37.942Z,12.81
2019-03-09T21:32:07.124Z,12.17
2019-03-09T21:34:36.212Z,12.59
2019-03-09T21:37:04.886Z,13.03
2019-03-09T21:39:33.726Z,12.73
2019-03-09T21:42:02.361Z,12.24
2019-03-09T21:44:30.982Z,12.49
2019-03-09T21:46:59.853Z,12.19
2019-03-09T21:49:28.570Z,12.31
2019-03-09T21:51:57.452Z,11.63
2019-03-09T21:54:26.310Z,12.58
2019-03-09T21:56:55.195Z,11.78
2019-03-09T21:59:23.985Z,11.60
2019-03-09T22:01:52.703Z,11.54
2019-03-09T22:04:21.289Z,11.83
2019-03-09T22:06:50.302Z,12.34
2019-03-09T22:09:18.899Z,13.02
2019-03-09T22:11:47.483Z,12.37
2019-03-09T22:14:16.107Z,11.88
2019-03-09T22:16:44.995Z,12.96
2019-03-09T22:19:13.657Z,13.08
2019-03-09T22:21:42.320Z,12.53
2019-03-09T22:24:11.002Z,11.47
2019-03-09T22:26:39.611Z,10.68
2019-03-09T22:29:08.239Z,11.76
2019-03-09T22:31:36.862Z,11.60
2019-03-09T22:34:05.603Z,12.36
2019-03-09T22:36:34.287Z,12.04
2019-03-09T22:39:03.036Z,10.80
2019-03-09T22:41:31.590Z,12.22
2019-03-09T22:44:00.182Z,11.96
2019-03-09T22:46:28.818Z,12.20
2019-03-09T22:48:57.718Z,11.44
2019-03-09T22:51:28.866Z,12.04
2019-03-09T22:53:58.165Z,12.95
2019-03-09T22:56:26.825Z,12.59
2019-03-09T22:58:55.467Z,12.94
2019-03-09T23:01:24.545Z,12.37
2019-03-09T23:03:53.538Z,12.66
2019-03-09T23:06:22.145Z,12.50
2019-03-09T23:08:50.741Z,12.16
2019-03-09T23:11:19.333Z,12.02
2019-03-09T23:13:47.944Z,12.07
2019-03-09T23:16:16.542Z,12.16
2019-03-09T23:18:45.177Z,12.49
2019-03-09T23:21:13.927Z,11.83
2019-03-09T23:23:43.834Z,12.08
2019-03-09T23:26:12.431Z,12.21
2019-03-09T23:28:45.934Z,11.99
2019-03-09T23:31:14.631Z,11.60
2019-03-09T23:33:43.335Z,12.59
2019-03-09T23:36:12.232Z,12.33
2019-03-09T23:38:41.137Z,11.33
2019-03-09T23:41:09.742Z,10.99
2019-03-09T23:43:38.359Z,12.13
2019-03-09T23:46:06.955Z,11.80
2019-03-09T23:48:35.648Z,12.02
2019-03-09T23:51:04.312Z,11.36
2019-03-09T23:53:33.245Z,12.77
2019-03-09T23:56:01.840Z,12.40
2019-03-09T23:58:30.552Z,11.56
